Time;durP1;ratioP1;P1;durP2;ratioP2;P2;SDS_P1;SDS_P2;PMS_P1;PMS_P2;Temp;Humidity;BMP_temperature;BMP_pressure;BME280_temperature;BME280_humidity;BME280_pressure;Samples;Min_cycle;Max_cycle;Signal;HPM_P1;HPM_P2
2023/11/05 00:01:59;;;;;;;8.00;2.70;;;;;;;15.52;79.82;98228.59;78361;1299;3028223;-69
2023/11/05 00:04:25;;;;;;;7.20;2.90;;;;;;;15.94;78.40;98243.04;79559;1298;3013832;-67
2023/11/05 00:06:52;;;;;;;7.20;3.50;;;;;;;16.39;76.04;98221.72;79549;1294;3011799;-67
2023/11/05 00:09:19;;;;;;;5.90;3.50;;;;;;;16.26;76.15;98219.35;78302;1297;3027961;-68
2023/11/05 00:11:46;;;;;;;6.10;3.30;;;;;;;16.14;76.64;98208.20;79677;1300;3018503;-69
2023/11/05 00:14:12;;;;;;;7.10;3.60;;;;;;;15.84;77.63;98197.27;79595;1295;3011965;-71
2023/11/05 00:16:40;;;;;;;8.90;3.90;;;;;;;15.79;78.08;98171.48;78398;1298;3028967;-67
2023/11/05 00:19:08;;;;;;;8.80;4.10;;;;;;;15.67;78.38;98152.02;79579;1298;3013001;-69
2023/11/05 00:21:35;;;;;;;10.30;3.60;;;;;;;15.57;79.00;98153.92;79835;1294;3013470;-67
2023/11/05 00:24:03;;;;;;;6.70;2.70;;;;;;;15.46;79.81;98152.55;78491;1298;3050089;-67
2023/11/05 00:26:29;;;;;;;7.20;2.90;;;;;;;15.97;78.15;98154.48;79704;1298;3013307;-69
2023/11/05 00:28:56;;;;;;;7.50;2.90;;;;;;;16.33;76.55;98126.05;79526;1298;3012848;-71
2023/11/05 00:31:29;;;;;;;10.70;3.20;;;;;;;16.35;75.93;98081.99;78313;1298;3028800;-68
2023/11/05 00:33:56;;;;;;;7.00;3.90;;;;;;;16.11;76.49;98061.20;79512;1300;3011778;-68
2023/11/05 00:36:24;;;;;;;11.20;4.00;;;;;;;15.95;76.94;98070.07;78375;1295;3051751;-65
2023/11/05 00:38:55;;;;;;;12.30;3.70;;;;;;;15.78;77.55;98097.11;79604;1299;3019025;-72
2023/11/05 00:41:22;;;;;;;13.20;3.70;;;;;;;15.70;77.90;98103.58;78052;1296;3052196;-70
2023/11/05 00:43:49;;;;;;;10.90;3.60;;;;;;;15.53;78.48;98101.23;79628;1298;3013513;-70
2023/11/05 00:46:15;;;;;;;9.50;3.20;;;;;;;15.45;78.98;98112.79;79597;1295;3012837;-70
2023/11/05 00:48:43;;;;;;;5.30;2.70;;;;;;;15.93;77.65;98110.01;78270;1296;3026772;-71
2023/11/05 00:51:09;;;;;;;6.40;3.00;;;;;;;16.20;76.25;98104.45;79580;1293;3019159;-70
2023/11/05 00:53:37;;;;;;;8.10;3.60;;;;;;;16.17;76.00;98101.52;79472;1294;3011961;-71
2023/11/05 00:56:06;;;;;;;10.50;4.00;;;;;;;15.97;76.73;98114.77;78306;1298;3052172;-68
2023/11/05 00:58:32;;;;;;;10.50;3.50;;;;;;;15.79;77.56;98127.03;79523;1297;3014458;-70
2023/11/05 01:00:59;;;;;;;9.00;3.70;;;;;;;15.72;77.87;98128.27;79583;1294;3011655;-69
2023/11/05 01:03:26;;;;;;;5.60;3.30;;;;;;;15.59;78.41;98121.63;78337;1299;3068176;-68
2023/11/05 01:05:53;;;;;;;6.70;3.20;;;;;;;15.49;79.17;98115.59;79754;1298;3013389;-70
2023/11/05 01:08:20;;;;;;;8.40;3.00;;;;;;;15.41;79.83;98112.20;79499;1294;3012240;-66
2023/11/05 01:10:48;;;;;;;8.40;3.10;;;;;;;15.87;78.56;98118.13;78393;1294;3026342;-69
2023/11/05 01:13:14;;;;;;;8.90;3.40;;;;;;;16.01;77.53;98112.19;79571;1298;3013311;-70
2023/11/05 01:15:41;;;;;;;11.60;4.10;;;;;;;16.06;77.39;98104.10;79624;1298;3012074;-71
2023/11/05 01:18:09;;;;;;;7.70;3.90;;;;;;;15.93;77.70;98119.76;78316;1294;3068266;-68
2023/11/05 01:20:35;;;;;;;8.70;4.30;;;;;;;15.84;78.31;98113.02;79686;1294;3013199;-69
2023/11/05 01:23:02;;;;;;;10.60;3.90;;;;;;;15.61;79.49;98102.18;79417;1298;3011596;-67
2023/11/05 01:25:30;;;;;;;8.70;3.70;;;;;;;15.49;79.82;98108.71;78241;1294;3025928;-66
2023/11/05 01:27:56;;;;;;;7.00;3.10;;;;;;;15.45;80.63;98112.42;79533;1295;3018910;-68
2023/11/05 01:30:23;;;;;;;11.90;3.30;;;;;;;15.89;79.54;98113.27;79587;1298;3011436;-69
2023/11/05 01:32:51;;;;;;;5.80;3.20;;;;;;;16.11;78.26;98121.04;78243;1295;3028676;-66
2023/11/05 01:35:17;;;;;;;11.30;4.00;;;;;;;16.07;78.18;98125.73;79574;1298;3013173;-65
2023/11/05 01:37:44;;;;;;;8.40;3.80;;;;;;;15.92;78.49;98123.22;79605;1298;3013563;-68
2023/11/05 01:40:12;;;;;;;9.00;4.00;;;;;;;15.74;79.32;98124.80;78303;1298;3025346;-68
2023/11/05 01:42:38;;;;;;;8.20;3.80;;;;;;;15.56;80.46;98107.48;79423;1300;3019634;-67
2023/11/05 01:45:05;;;;;;;10.20;3.90;;;;;;;15.42;81.17;98083.99;79517;1299;3012794;-69
2023/11/05 01:47:34;;;;;;;10.90;3.20;;;;;;;15.44;81.40;98075.73;78214;1300;3069184;-67
2023/11/05 01:50:02;;;;;;;10.30;3.50;;;;;;;15.77;80.30;98074.38;79523;1296;3020993;-68
2023/11/05 01:52:28;;;;;;;7.20;3.90;;;;;;;15.94;79.33;98086.44;79508;1295;3012151;-69
2023/11/05 01:54:56;;;;;;;4.90;3.30;;;;;;;15.87;79.56;98090.91;78328;1294;3053548;-67
2023/11/05 01:57:22;;;;;;;8.20;3.60;;;;;;;15.82;79.70;98076.02;79448;1300;3013785;-70
2023/11/05 01:59:49;;;;;;;9.10;3.90;;;;;;;15.62;80.45;98074.89;79414;1294;3012149;-68
2023/11/05 02:02:17;;;;;;;9.90;4.20;;;;;;;15.48;81.10;98061.67;78220;1300;3027256;-68
2023/11/05 02:04:43;;;;;;;9.10;2.80;;;;;;;15.38;81.93;98053.55;79448;1294;3012931;-68
2023/11/05 02:07:10;;;;;;;13.10;3.10;;;;;;;15.75;80.80;98046.79;79444;1294;3012036;-68
2023/11/05 02:09:38;;;;;;;9.40;3.60;;;;;;;15.93;79.86;98050.70;78185;1298;3029871;-66
2023/11/05 02:12:05;;;;;;;8.50;3.50;;;;;;;15.97;79.51;98045.23;79522;1300;3018409;-69
2023/11/05 02:14:32;;;;;;;11.50;3.70;;;;;;;15.78;80.32;98053.67;79476;1298;3011597;-66
2023/11/05 02:16:59;;;;;;;10.10;3.60;;;;;;;15.63;80.86;98054.38;78272;1297;3029825;-66
2023/11/05 02:19:26;;;;;;;15.70;4.30;;;;;;;15.56;81.20;98063.05;79463;1299;3019181;-67
2023/11/05 02:21:58;;;;;;;11.20;3.20;;;;;;;15.48;81.91;98056.41;79386;1300;3012961;-65
2023/11/05 02:24:25;;;;;;;11.50;3.40;;;;;;;15.79;81.07;98049.02;78219;1298;3053697;-64
2023/11/05 02:26:56;;;;;;;10.00;3.60;;;;;;;16.02;79.79;98051.21;79571;1297;3013239;-66
2023/11/05 02:29:24;;;;;;;15.10;4.10;;;;;;;16.06;79.70;98047.80;78361;1300;3051587;-68
2023/11/05 02:31:50;;;;;;;11.30;3.80;;;;;;;16.00;79.82;98046.30;79463;1295;3014003;-65
2023/11/05 02:34:17;;;;;;;7.20;3.90;;;;;;;15.83;80.24;98047.02;79418;1294;3011665;-69
2023/11/05 02:36:45;;;;;;;9.20;3.80;;;;;;;15.63;81.39;98039.71;78124;1298;3025455;-67
2023/11/05 02:39:12;;;;;;;6.70;2.70;;;;;;;15.51;82.16;98037.36;79446;1300;3012946;-65
2023/11/05 02:41:38;;;;;;;7.50;3.00;;;;;;;15.91;80.88;98033.56;79501;1300;3012301;-67
2023/11/05 02:44:06;;;;;;;8.00;3.10;;;;;;;16.27;78.89;98033.39;78074;1300;3051996;-64
2023/11/05 02:46:32;;;;;;;11.30;3.40;;;;;;;16.27;78.65;98027.30;79507;1297;3020832;-66
2023/11/05 02:48:59;;;;;;;11.20;3.60;;;;;;;16.01;79.57;98029.19;79321;1296;3013069;-67
2023/11/05 02:51:27;;;;;;;9.70;3.50;;;;;;;15.80;80.44;98037.73;78221;1300;3028868;-66
2023/11/05 02:53:54;;;;;;;7.70;4.00;;;;;;;15.62;81.16;98036.93;79430;1297;3013317;-70
2023/11/05 02:56:20;;;;;;;8.10;3.00;;;;;;;15.57;82.05;98040.52;79409;1300;3011681;-69
2023/11/05 02:58:48;;;;;;;9.30;3.00;;;;;;;16.04;80.90;98036.53;78347;1299;3028175;-69
2023/11/05 03:01:24;;;;;;;7.50;3.50;;;;;;;16.08;79.70;98039.45;79334;1300;3013098;-71
2023/11/05 03:03:52;;;;;;;9.70;3.40;;;;;;;16.02;80.18;98029.09;78186;1297;3058868;-71
2023/11/05 03:06:19;;;;;;;10.00;3.60;;;;;;;15.86;80.73;98035.36;79442;1300;3012787;-72
2023/11/05 03:08:46;;;;;;;11.40;4.40;;;;;;;15.65;81.79;98048.83;79380;1297;3011618;-68
2023/11/05 03:11:14;;;;;;;7.50;3.60;;;;;;;15.65;81.95;98045.65;78244;1300;3053277;-68
2023/11/05 03:13:41;;;;;;;12.00;3.30;;;;;;;15.51;82.59;98050.10;79401;1299;3013256;-71
2023/11/05 03:16:11;;;;;;;9.10;3.10;;;;;;;15.91;81.56;98031.31;79596;1297;3011590;-68
2023/11/05 03:18:42;;;;;;;7.50;3.40;;;;;;;16.27;79.66;98035.48;78246;1297;3055899;-72
2023/11/05 03:21:13;;;;;;;9.80;3.50;;;;;;;16.17;79.64;98044.48;79423;1297;3011475;-67
2023/11/05 03:23:41;;;;;;;9.40;3.40;;;;;;;15.88;80.78;98054.53;78111;1299;3053567;-65
2023/11/05 03:26:08;;;;;;;11.20;3.90;;;;;;;15.68;81.70;98047.17;79623;1299;3013597;-68
2023/11/05 03:28:34;;;;;;;11.60;4.10;;;;;;;15.54;82.36;98055.80;79368;1303;3012021;-67
2023/11/05 03:31:03;;;;;;;12.10;3.20;;;;;;;15.48;82.99;98050.97;78281;1294;3029266;-66
2023/11/05 03:33:30;;;;;;;13.70;3.20;;;;;;;15.92;81.98;98049.79;79482;1297;3015361;-67
2023/11/05 03:35:57;;;;;;;11.40;3.00;;;;;;;16.17;80.20;98058.23;79455;1299;3013226;-71
2023/11/05 03:38:25;;;;;;;10.70;3.90;;;;;;;16.00;80.68;98052.42;78140;1300;3053092;-68
2023/11/05 03:40:52;;;;;;;14.50;4.00;;;;;;;15.80;81.59;98048.36;79559;1300;3015924;-72
2023/11/05 03:43:18;;;;;;;9.40;3.70;;;;;;;15.63;82.45;98058.27;79426;1300;3011969;-68
2023/11/05 03:45:46;;;;;;;10.10;3.60;;;;;;;15.47;83.24;98057.42;78243;1295;3067977;-70
2023/11/05 03:48:12;;;;;;;9.00;2.70;;;;;;;15.41;83.90;98062.23;79494;1300;3019086;-67
2023/11/05 03:50:39;;;;;;;9.70;3.20;;;;;;;15.67;83.35;98065.88;79369;1297;3011966;-69
2023/11/05 03:53:07;;;;;;;11.90;2.90;;;;;;;15.87;82.39;98065.83;78227;1299;3026318;-69
2023/11/05 03:55:34;;;;;;;9.10;4.10;;;;;;;15.88;81.99;98060.56;79441;1300;3018410;-69
2023/11/05 03:58:00;;;;;;;9.60;3.60;;;;;;;15.80;82.08;98066.54;79401;1300;3013813;-69
2023/11/05 04:00:28;;;;;;;13.70;4.10;;;;;;;15.53;83.43;98070.21;78336;1300;3025868;-69
2023/11/05 04:02:56;;;;;;;9.30;3.60;;;;;;;15.51;83.37;98061.41;79483;1296;3014036;-71
2023/11/05 04:05:23;;;;;;;7.90;2.90;;;;;;;15.37;84.64;98073.09;79454;1297;3011668;-69
2023/11/05 04:07:51;;;;;;;8.40;3.20;;;;;;;15.88;82.92;98071.48;78156;1295;3054314;-69
2023/11/05 04:10:17;;;;;;;7.60;3.40;;;;;;;16.04;81.68;98082.56;79470;1300;3013456;-66
2023/11/05 04:12:44;;;;;;;11.20;4.00;;;;;;;15.94;82.14;98084.36;79419;1295;3013659;-71
2023/11/05 04:15:11;;;;;;;9.80;3.80;;;;;;;15.75;82.55;98084.37;78312;1299;3028391;-69
2023/11/05 04:17:38;;;;;;;9.80;3.50;;;;;;;15.63;83.26;98069.14;79466;1297;3018458;-66
2023/11/05 04:20:05;;;;;;;12.90;4.00;;;;;;;15.39;84.62;98084.31;79531;1294;3011487;-70
2023/11/05 04:22:33;;;;;;;9.30;3.30;;;;;;;15.36;85.03;98085.69;78306;1299;3053677;-67
2023/11/05 04:25:00;;;;;;;10.20;3.50;;;;;;;15.74;83.64;98081.46;79631;1300;3012806;-66
2023/11/05 04:27:27;;;;;;;11.40;4.30;;;;;;;15.87;82.95;98086.77;79357;1299;3013402;-69
2023/11/05 04:29:54;;;;;;;13.50;3.30;;;;;;;15.89;82.68;98099.34;78323;1300;3027584;-72
2023/11/05 04:32:21;;;;;;;9.10;3.70;;;;;;;15.71;83.39;98105.97;79539;1297;3012817;-69
2023/11/05 04:34:47;;;;;;;10.50;3.80;;;;;;;15.50;84.42;98100.81;79581;1295;3011672;-67
2023/11/05 04:37:15;;;;;;;12.60;4.40;;;;;;;15.44;84.45;98096.73;78408;1300;3026431;-71
2023/11/05 04:39:42;;;;;;;9.70;2.80;;;;;;;15.29;85.55;98107.39;79586;1300;3013231;-69
2023/11/05 04:42:10;;;;;;;11.20;3.30;;;;;;;15.70;84.62;98092.86;79500;1294;3011704;-66
2023/11/05 04:44:39;;;;;;;10.30;3.70;;;;;;;15.96;83.05;98045.14;78303;1300;3069795;-66
2023/11/05 04:47:05;;;;;;;11.50;3.90;;;;;;;15.97;82.63;98117.52;79651;1296;3012515;-68
2023/11/05 04:49:32;;;;;;;11.00;3.60;;;;;;;15.78;83.80;98131.65;79406;1295;3011564;-70
2023/11/05 04:52:00;;;;;;;14.30;4.50;;;;;;;15.60;84.77;98130.23;78333;1294;3028403;-66
2023/11/05 04:54:26;;;;;;;9.30;3.70;;;;;;;15.49;85.77;98102.02;79661;1300;3013054;-70
2023/11/05 04:56:52;;;;;;;12.00;3.00;;;;;;;15.26;87.45;98114.54;79605;1299;3011653;-67
2023/11/05 04:59:20;;;;;;;8.50;3.10;;;;;;;15.68;86.09;98134.30;78370;1299;3026533;-69
2023/11/05 05:01:47;;;;;;;14.20;4.00;;;;;;;15.95;84.76;98116.85;79692;1294;3012870;-65
2023/11/05 05:04:13;;;;;;;15.40;4.00;;;;;;;15.83;84.84;98142.48;79450;1294;3011736;-63
2023/11/05 05:06:41;;;;;;;10.80;4.10;;;;;;;15.57;85.92;98121.78;78245;1294;3026296;-65
2023/11/05 05:09:09;;;;;;;14.00;5.10;;;;;;;15.62;85.98;98099.81;79594;1298;3019166;-64
2023/11/05 05:11:35;;;;;;;12.10;4.20;;;;;;;15.53;86.22;98101.80;79643;1298;3011667;-70
2023/11/05 05:14:03;;;;;;;17.80;4.40;;;;;;;15.80;85.51;98123.15;78147;1300;3069035;-70
2023/11/05 05:16:30;;;;;;;17.10;5.20;;;;;;;15.91;85.37;98098.83;79608;1294;3012887;-70
2023/11/05 05:18:56;;;;;;;15.50;5.60;;;;;;;15.90;85.47;98092.70;79499;1299;3012818;-65
2023/11/05 05:21:24;;;;;;;23.50;7.10;;;;;;;15.66;86.17;98102.67;78052;1299;3028646;-68
2023/11/05 05:23:51;;;;;;;22.60;5.90;;;;;;;15.47;87.37;98115.61;79611;1301;3012548;-67
2023/11/05 05:26:17;;;;;;;11.00;4.00;;;;;;;15.34;87.95;98115.88;79566;1299;3011634;-68
2023/11/05 05:28:47;;;;;;;12.80;4.70;;;;;;;15.76;86.67;98121.35;78403;1294;3026193;-68
2023/11/05 05:31:14;;;;;;;9.80;4.30;;;;;;;15.94;85.54;98115.27;79502;1297;3013255;-67
2023/11/05 05:33:43;;;;;;;14.70;5.30;;;;;;;15.88;85.35;98123.27;79120;1297;3013090;-68
2023/11/05 05:36:12;;;;;;;15.80;5.50;;;;;;;15.72;85.84;98130.73;79684;1300;3018407;-69
2023/11/05 05:38:38;;;;;;;19.10;5.70;;;;;;;15.52;87.09;98136.05;79468;1304;3011827;-72
2023/11/05 05:41:06;;;;;;;13.30;4.10;;;;;;;15.44;87.44;98137.64;78331;1298;3051412;-67
2023/11/05 05:43:33;;;;;;;11.20;4.50;;;;;;;15.82;86.68;98133.56;79478;1299;3013867;-68
2023/11/05 05:45:59;;;;;;;15.70;5.30;;;;;;;16.16;84.70;98123.75;79422;1295;3011770;-66
2023/11/05 05:48:27;;;;;;;18.50;5.50;;;;;;;15.97;85.11;98133.77;78260;1296;3027254;-67
2023/11/05 05:50:53;;;;;;;14.70;5.30;;;;;;;15.86;85.48;98134.45;79561;1294;3013566;-70
2023/11/05 05:53:20;;;;;;;17.20;6.10;;;;;;;15.74;85.89;98135.94;79562;1296;3011812;-69
2023/11/05 05:55:49;;;;;;;13.90;4.00;;;;;;;15.60;86.55;98136.56;78135;1298;3026698;-64
2023/11/05 05:58:16;;;;;;;14.70;4.50;;;;;;;15.92;85.93;98140.85;79559;1299;3013300;-66
2023/11/05 06:00:43;;;;;;;19.10;5.00;;;;;;;16.16;84.26;98142.45;79581;1300;3011718;-67
2023/11/05 06:03:11;;;;;;;15.00;5.10;;;;;;;16.04;84.84;98138.05;78275;1297;3056185;-68
2023/11/05 06:05:37;;;;;;;13.40;5.10;;;;;;;16.01;84.84;98139.11;79378;1300;3013504;-69
2023/11/05 06:08:04;;;;;;;15.10;5.20;;;;;;;15.81;85.67;98138.84;79459;1298;3011921;-71
2023/11/05 06:10:32;;;;;;;13.40;4.40;;;;;;;15.67;86.68;98134.55;78386;1298;3025255;-69
2023/11/05 06:12:59;;;;;;;15.20;4.70;;;;;;;16.06;85.61;98129.68;79426;1299;3012994;-66
2023/11/05 06:15:25;;;;;;;12.80;4.40;;;;;;;16.32;83.66;98127.88;79521;1299;3011982;-67
2023/11/05 06:17:53;;;;;;;21.60;5.50;;;;;;;16.30;83.55;98138.01;78281;1295;3025399;-70
2023/11/05 06:21:48;;;;;;;18.10;5.60;;;;;;;16.22;83.97;98133.88;80181;1299;3013457;-69
2023/11/05 06:24:14;;;;;;;19.00;5.90;;;;;;;16.05;84.78;98127.91;79238;1307;3012647;-69
2023/11/05 06:26:41;;;;;;;17.00;5.20;;;;;;;16.07;84.84;98126.04;79233;1308;3011787;-67
2023/11/05 06:29:09;;;;;;;14.90;4.80;;;;;;;16.37;83.77;98129.64;77936;1307;3026473;-68
2023/11/05 06:31:35;;;;;;;13.50;4.50;;;;;;;16.51;83.05;98134.73;79260;1302;3018724;-70
2023/11/05 06:34:06;;;;;;;19.80;5.70;;;;;;;16.55;82.31;98130.33;78100;1302;3327238;-66
2023/11/05 06:36:33;;;;;;;16.90;5.50;;;;;;;16.40;83.00;98123.13;79606;1301;3018564;-65
2023/11/05 06:38:59;;;;;;;17.00;4.90;;;;;;;16.28;83.20;98151.27;79533;1303;3011842;-66
2023/11/05 06:41:27;;;;;;;10.30;4.30;;;;;;;16.14;83.83;98151.77;78280;1301;3026608;-68
2023/11/05 06:43:53;;;;;;;11.00;3.50;;;;;;;16.08;84.39;98136.95;79454;1304;3020863;-67
2023/11/05 06:46:20;;;;;;;16.00;4.10;;;;;;;16.56;82.39;98118.25;79519;1299;3011493;-66
2023/11/05 06:48:48;;;;;;;14.20;4.80;;;;;;;16.69;82.29;98121.16;78279;1300;3029070;-65
2023/11/05 06:51:14;;;;;;;17.80;5.00;;;;;;;16.75;82.30;98136.51;79364;1300;3012849;-69
2023/11/05 06:53:41;;;;;;;16.40;4.60;;;;;;;16.61;83.06;98138.92;79656;1299;3011875;-69
2023/11/05 06:56:10;;;;;;;21.80;4.60;;;;;;;16.40;83.63;98135.50;78215;1301;3026543;-67
2023/11/05 06:58:37;;;;;;;13.50;4.80;;;;;;;16.13;84.84;98129.69;79486;1301;3013808;-72
2023/11/05 07:01:04;;;;;;;12.90;3.90;;;;;;;16.23;85.30;98122.08;79580;1298;3013717;-72
2023/11/05 07:03:32;;;;;;;16.80;3.70;;;;;;;16.71;84.08;98125.17;78215;1301;3052001;-71
2023/11/05 07:05:59;;;;;;;14.50;3.80;;;;;;;16.96;82.00;98128.19;79670;1298;3013118;-66
2023/11/05 07:08:27;;;;;;;12.70;4.00;;;;;;;16.91;82.33;98130.48;79484;1302;3011550;-68
2023/11/05 07:10:55;;;;;;;10.20;4.10;;;;;;;16.79;82.19;98149.41;78387;1301;3050654;-69
2023/11/05 07:13:21;;;;;;;10.60;3.80;;;;;;;16.44;83.81;98157.54;79595;1298;3013307;-69
2023/11/05 07:15:48;;;;;;;15.70;3.70;;;;;;;16.11;85.98;98170.02;79564;1299;3011289;-68
2023/11/05 07:18:15;;;;;;;10.30;2.90;;;;;;;16.06;86.18;98163.08;78400;1298;3026119;-68
2023/11/05 07:20:42;;;;;;;13.10;3.20;;;;;;;16.45;84.53;98153.41;79610;1299;3013247;-67
2023/11/05 07:23:08;;;;;;;8.60;2.50;;;;;;;16.76;83.58;98155.23;79687;1298;3011551;-75
2023/11/05 07:25:36;;;;;;;14.20;3.60;;;;;;;16.44;84.22;98169.70;78154;1301;3026358;-67
2023/11/05 07:28:03;;;;;;;18.20;3.50;;;;;;;16.13;85.89;98151.73;79693;1302;3013073;-70
2023/11/05 07:30:30;;;;;;;11.10;2.70;;;;;;;15.85;88.26;98145.08;79572;1302;3011956;-68
2023/11/05 07:32:58;;;;;;;8.90;2.00;;;;;;;15.80;89.61;98133.77;78530;1301;3028906;-72
2023/11/05 07:35:26;;;;;;;11.30;2.20;;;;;;;16.38;88.18;98121.91;79690;1301;3013507;-67
2023/11/05 07:37:54;;;;;;;11.00;2.20;;;;;;;16.49;86.10;98139.11;79422;1297;3011667;-71
2023/11/05 07:40:22;;;;;;;13.20;3.40;;;;;;;16.30;87.26;98129.83;78214;1298;3050414;-72
2023/11/05 07:42:48;;;;;;;10.60;2.60;;;;;;;16.15;88.19;98112.90;79819;1300;3013168;-68
2023/11/05 07:45:15;;;;;;;11.60;3.30;;;;;;;15.95;89.42;98100.26;79427;1295;3013164;-71
2023/11/05 07:47:43;;;;;;;8.30;2.30;;;;;;;15.88;90.32;98100.00;78382;1301;3028053;-68
2023/11/05 07:50:13;;;;;;;11.30;2.60;;;;;;;16.36;88.78;98099.16;79457;1298;3013087;-67
2023/11/05 07:52:43;;;;;;;10.60;2.00;;;;;;;16.44;87.66;98103.31;79083;1296;3011661;-66
2023/11/05 07:55:10;;;;;;;13.60;2.60;;;;;;;16.40;87.75;98099.80;79526;1297;3013339;-70
2023/11/05 07:57:38;;;;;;;12.20;2.30;;;;;;;16.37;88.03;98103.37;79508;1298;3011648;-69
2023/11/05 08:00:15;;;;;;;12.80;2.40;;;;;;;16.06;89.67;98112.04;78238;1301;3053671;-70
2023/11/05 08:02:43;;;;;;;9.90;2.30;;;;;;;15.98;90.03;98105.31;78369;1301;3069420;-67
2023/11/05 08:05:10;;;;;;;8.70;2.00;;;;;;;16.03;90.18;98085.75;79621;1297;3013358;-67
2023/11/05 08:07:36;;;;;;;13.00;2.60;;;;;;;16.35;88.56;98077.05;79672;1299;3011862;-66
2023/11/05 08:10:08;;;;;;;7.30;2.20;;;;;;;16.32;87.74;98076.96;78278;1301;3026278;-67
2023/11/05 08:12:35;;;;;;;8.50;2.40;;;;;;;16.16;88.25;98067.00;79615;1299;3013702;-67
2023/11/05 08:15:03;;;;;;;10.90;3.00;;;;;;;15.98;89.71;98060.93;78298;1301;3026027;-69
2023/11/05 08:17:30;;;;;;;6.10;2.10;;;;;;;15.97;89.71;98060.20;79474;1298;3013305;-69
2023/11/05 08:19:56;;;;;;;9.00;2.10;;;;;;;16.49;87.34;98055.02;79664;1298;3012149;-70
2023/11/05 08:22:24;;;;;;;6.00;1.80;;;;;;;16.64;85.46;98055.77;78252;1296;3027699;-70
2023/11/05 08:24:51;;;;;;;11.80;2.80;;;;;;;16.50;85.13;98080.78;79443;1296;3012192;-69
2023/11/05 08:27:17;;;;;;;8.60;2.50;;;;;;;16.33;86.29;98108.69;79558;1301;3011624;-67
2023/11/05 08:29:45;;;;;;;8.30;2.60;;;;;;;15.92;88.78;98111.27;78345;1301;3026095;-67
2023/11/05 08:32:13;;;;;;;8.10;2.10;;;;;;;15.75;89.95;98115.46;79631;1301;3020825;-67
2023/11/05 08:34:41;;;;;;;6.90;2.00;;;;;;;16.13;88.81;98114.11;79596;1296;3013291;-69
2023/11/05 08:37:08;;;;;;;8.80;2.10;;;;;;;16.43;86.87;98117.52;78313;1301;3057177;-65
2023/11/05 08:39:35;;;;;;;8.10;1.70;;;;;;;16.36;86.42;98098.83;79694;1301;3019291;-69
2023/11/05 08:42:02;;;;;;;10.10;2.10;;;;;;;16.21;87.36;98089.66;79617;1295;3011592;-72
2023/11/05 08:44:30;;;;;;;11.30;2.60;;;;;;;15.97;88.27;98092.23;78202;1300;3025718;-67
2023/11/05 08:46:56;;;;;;;7.40;1.50;;;;;;;15.90;89.40;98085.45;79522;1300;3018888;-72
2023/11/05 08:49:24;;;;;;;9.20;1.90;;;;;;;16.20;87.95;98084.27;79535;1297;3011603;-68
2023/11/05 08:51:53;;;;;;;7.00;2.30;;;;;;;16.48;86.20;98068.71;78300;1301;3057428;-66
2023/11/05 08:54:20;;;;;;;7.70;2.30;;;;;;;16.33;86.91;98061.65;79528;1301;3012641;-67
2023/11/05 08:56:46;;;;;;;9.00;2.40;;;;;;;16.22;87.34;98065.44;79537;1296;3011426;-69
2023/11/05 08:59:15;;;;;;;12.20;2.40;;;;;;;16.12;87.82;98069.25;78378;1300;3052417;-67
2023/11/05 09:01:41;;;;;;;6.60;1.90;;;;;;;15.91;89.08;98078.00;79757;1298;3013241;-68
2023/11/05 09:04:09;;;;;;;8.80;1.60;;;;;;;16.28;87.97;98078.98;79497;1295;3011871;-66
2023/11/05 09:06:36;;;;;;;14.80;1.80;;;;;;;16.39;87.03;98087.23;78309;1299;3056524;-70
2023/11/05 09:09:05;;;;;;;11.50;2.00;;;;;;;16.20;87.78;98088.92;79674;1296;3015637;-70
2023/11/05 09:11:33;;;;;;;7.90;2.00;;;;;;;16.02;88.66;98085.94;79605;1301;3011536;-72
2023/11/05 09:14:01;;;;;;;10.00;1.70;;;;;;;15.84;89.69;98083.56;78279;1300;3053027;-70
2023/11/05 09:16:27;;;;;;;4.00;1.20;;;;;;;15.81;90.20;98083.58;79546;1300;3021212;-67
2023/11/05 09:18:55;;;;;;;9.50;1.80;;;;;;;16.10;88.98;98078.94;79428;1299;3011481;-77
2023/11/05 09:21:23;;;;;;;11.00;2.00;;;;;;;16.32;87.50;98083.52;78301;1298;3056019;-73
2023/11/05 09:23:49;;;;;;;8.00;1.50;;;;;;;16.47;86.70;98080.18;79702;1297;3018694;-71
2023/11/05 09:26:18;;;;;;;8.80;1.30;;;;;;;16.23;87.39;98075.48;79515;1296;3011342;-66
2023/11/05 09:28:47;;;;;;;3.60;1.20;;;;;;;15.95;89.18;98072.09;78454;1299;3052398;-74
2023/11/05 09:31:13;;;;;;;6.60;1.00;;;;;;;15.99;89.38;98070.77;79531;1300;3014601;-68
2023/11/05 09:33:40;;;;;;;4.60;1.20;;;;;;;16.23;88.21;98068.73;79714;1301;3013032;-69
2023/11/05 09:36:08;;;;;;;7.70;1.30;;;;;;;16.60;86.02;98064.14;78209;1298;3056662;-71
2023/11/05 09:38:34;;;;;;;8.70;1.40;;;;;;;16.45;87.12;98054.77;79416;1299;3018536;-65
2023/11/05 09:41:01;;;;;;;11.10;1.40;;;;;;;16.42;87.25;98055.77;79506;1299;3011666;-69
2023/11/05 09:43:29;;;;;;;8.90;1.40;;;;;;;16.45;87.08;98046.26;78353;1300;3026141;-67
2023/11/05 09:45:55;;;;;;;8.40;1.50;;;;;;;16.40;87.40;98055.83;79612;1298;3015031;-70
2023/11/05 09:48:23;;;;;;;8.10;1.30;;;;;;;16.73;86.90;98047.27;79409;1296;3012897;-65
2023/11/05 09:50:51;;;;;;;8.30;1.50;;;;;;;17.01;84.86;98045.50;78223;1297;3026585;-65
2023/11/05 09:53:17;;;;;;;5.80;1.20;;;;;;;16.83;84.80;98048.04;79452;1299;3013096;-67
2023/11/05 09:55:45;;;;;;;16.40;1.70;;;;;;;16.63;85.53;98043.50;79524;1300;3013016;-67
2023/11/05 09:58:13;;;;;;;7.50;1.60;;;;;;;16.59;85.56;98046.85;78459;1296;3026471;-68
2023/11/05 10:00:40;;;;;;;8.40;1.40;;;;;;;16.55;85.64;98043.27;79621;1298;3012919;-71
2023/11/05 10:03:08;;;;;;;5.50;1.30;;;;;;;16.71;84.34;98042.94;79447;1296;3011903;-67
2023/11/05 10:05:37;;;;;;;9.10;2.20;;;;;;;16.99;83.01;98039.20;78389;1298;3055799;-69
2023/11/05 10:08:05;;;;;;;9.70;1.90;;;;;;;17.07;82.08;98037.86;79529;1298;3013454;-74
2023/11/05 10:10:35;;;;;;;10.20;1.20;;;;;;;17.14;81.39;98043.99;79009;1298;3013205;-68
2023/11/05 10:13:05;;;;;;;10.00;1.50;;;;;;;17.02;81.26;98043.85;79466;1300;3013522;-68
2023/11/05 10:15:37;;;;;;;6.60;1.30;;;;;;;16.92;81.06;98040.13;78215;1301;3051978;-67
2023/11/05 10:18:04;;;;;;;7.80;1.50;;;;;;;16.98;81.63;98029.80;79461;1298;3011579;-70
2023/11/05 10:20:32;;;;;;;5.90;1.00;;;;;;;17.47;79.49;98029.31;78343;1300;3028220;-71
2023/11/05 10:23:05;;;;;;;10.70;1.40;;;;;;;17.82;76.36;98027.67;79575;1298;3018640;-70
2023/11/05 10:25:36;;;;;;;5.50;1.30;;;;;;;17.82;75.84;98025.19;78317;1299;3053639;-69
2023/11/05 10:28:03;;;;;;;10.70;1.80;;;;;;;17.53;77.41;98021.74;79655;1300;3011507;-74
2023/11/05 10:30:32;;;;;;;8.50;2.10;;;;;;;17.36;78.37;98025.20;78374;1301;3028337;-70
2023/11/05 10:33:00;;;;;;;8.20;1.60;;;;;;;17.26;79.05;98027.59;79501;1304;3013470;-72
2023/11/05 10:35:27;;;;;;;9.40;1.80;;;;;;;17.14;79.76;98031.45;79501;1298;3011572;-73
2023/11/05 10:37:56;;;;;;;11.00;1.70;;;;;;;17.08;80.31;98022.14;78339;1300;3057216;-66
2023/11/05 10:40:23;;;;;;;8.50;1.60;;;;;;;16.97;80.16;98026.02;79643;1298;3013370;-71
2023/11/05 10:42:49;;;;;;;4.50;1.30;;;;;;;17.19;77.95;98034.02;79656;1298;3011484;-71
2023/11/05 10:45:18;;;;;;;9.40;1.60;;;;;;;17.20;77.75;98034.65;78307;1300;3051701;-69
2023/11/05 10:47:50;;;;;;;5.30;1.70;;;;;;;17.33;76.91;98042.90;79670;1298;3013712;-71
2023/11/05 10:50:27;;;;;;;7.20;2.00;;;;;;;17.14;76.81;98046.74;78235;1297;3050957;-73
2023/11/05 10:52:58;;;;;;;9.80;1.80;;;;;;;17.11;77.14;98036.36;78272;1301;3056214;-70
2023/11/05 10:55:34;;;;;;;6.90;1.70;;;;;;;16.91;77.07;98044.80;79235;1296;3011576;-66
2023/11/05 10:58:06;;;;;;;6.30;1.50;;;;;;;16.71;78.24;98046.60;78316;1301;3054223;-68
2023/11/05 11:00:33;;;;;;;7.60;1.50;;;;;;;16.65;78.73;98044.49;79420;1299;3013487;-69
2023/11/05 11:03:02;;;;;;;3.30;1.40;;;;;;;16.50;79.28;98051.62;78351;1300;3052010;-70
2023/11/05 11:05:41;;;;;;;5.50;1.60;;;;;;;16.60;78.99;98051.92;79388;1299;3013695;-67
2023/11/05 11:08:16;;;;;;;4.90;1.60;;;;;;;17.02;77.39;98058.17;78256;1300;3052317;-72
2023/11/05 11:10:48;;;;;;;11.30;2.20;;;;;;;16.96;77.94;98060.92;79092;1298;3013934;-73
2023/11/05 11:13:19;;;;;;;4.90;1.70;;;;;;;16.85;78.64;98054.56;79561;1297;3011966;-73
2023/11/05 11:15:53;;;;;;;5.60;1.70;;;;;;;16.84;78.60;98057.30;78478;1295;3048416;-73
2023/11/05 11:18:26;;;;;;;7.50;1.60;;;;;;;16.78;79.24;98054.77;78826;1296;3011629;-72